Time;durP1;ratioP1;P1;durP2;ratioP2;P2;SDS_P1;SDS_P2;PMS_P1;PMS_P2;Temp;Humidity;BMP_temperature;BMP_pressure;BME280_temperature;BME280_humidity;BME280_pressure;Samples;Min_cycle;Max_cycle;Signal;HPM_P1;HPM_P2
2022/07/11 00:00:06;;;;;;;;;0.00;0.00;;;;;22.17;50.47;98580.78;4918017;28;102364;-56
2022/07/11 00:02:34;;;;;;;;;0.00;0.00;;;;;22.17;50.19;98569.75;4914012;28;103241;-56
2022/07/11 00:05:02;;;;;;;;;0.00;0.00;;;;;22.17;50.51;98578.03;4914329;28;104363;-56
2022/07/11 00:07:29;;;;;;;;;0.00;0.00;;;;;22.16;50.44;98579.13;4906543;28;104472;-56
2022/07/11 00:09:57;;;;;;;;;0.00;0.00;;;;;22.15;50.54;98580.22;4902761;28;102400;-55
2022/07/11 00:12:27;;;;;;;;;0.00;0.00;;;;;22.16;50.58;98581.06;4916045;28;102702;-56
2022/07/11 00:14:54;;;;;;;;;0.00;0.00;;;;;22.15;50.48;98574.72;4916085;28;104313;-56
2022/07/11 00:17:23;;;;;;;;;1.00;0.00;;;;;22.14;50.58;98578.59;4916901;28;102504;-56
2022/07/11 00:19:50;;;;;;;;;0.00;0.00;;;;;22.14;50.60;98581.34;4920828;28;103638;-56
2022/07/11 00:22:18;;;;;;;;;0.00;0.00;;;;;22.13;50.42;98574.19;4918566;28;102215;-56
2022/07/11 00:24:45;;;;;;;;;0.00;0.00;;;;;22.14;50.61;98577.75;4916219;28;110079;-56
2022/07/11 00:27:13;;;;;;;;;0.00;0.00;;;;;22.12;50.42;98582.72;4918285;28;102283;-56
2022/07/11 00:29:40;;;;;;;;;0.00;0.00;;;;;22.14;50.34;98580.53;4914140;28;102366;-56
2022/07/11 00:32:08;;;;;;;;;0.00;0.00;;;;;22.13;50.57;98585.19;4919190;28;102211;-56
2022/07/11 00:34:35;;;;;;;;;0.00;0.00;;;;;22.14;50.58;98584.09;4915634;28;104416;-56
2022/07/11 00:37:02;;;;;;;;;0.00;0.00;;;;;22.14;50.67;98581.34;4911101;28;102385;-56
2022/07/11 00:39:30;;;;;;;;;0.00;0.00;;;;;22.15;50.75;98582.19;4913908;28;103362;-56
2022/07/11 00:41:57;;;;;;;;;0.00;0.00;;;;;22.14;50.77;98580.53;4916572;28;102130;-55
2022/07/11 00:44:25;;;;;;;;;0.00;0.00;;;;;22.14;50.74;98584.09;4914350;28;104377;-56
2022/07/11 00:46:53;;;;;;;;;0.00;0.00;;;;;22.13;50.95;98595.38;4921850;28;102671;-56
2022/07/11 00:49:21;;;;;;;;;1.00;0.67;;;;;22.12;50.47;98594.56;4912541;28;102133;-55
2022/07/11 00:51:49;;;;;;;;;0.00;0.00;;;;;22.13;50.48;98592.63;4913862;28;102286;-56
2022/07/11 00:54:16;;;;;;;;;0.00;0.00;;;;;22.12;50.56;98583.53;4912805;28;109237;-55
2022/07/11 00:56:43;;;;;;;;;0.00;0.00;;;;;22.11;50.84;98587.38;4908194;28;102210;-56
2022/07/11 00:59:10;;;;;;;;;0.00;0.00;;;;;22.10;50.84;98595.94;4915072;28;103780;-56
2022/07/11 01:01:37;;;;;;;;;0.00;0.00;;;;;22.09;50.82;98594.28;4909691;28;102719;-56
2022/07/11 01:04:05;;;;;;;;;0.00;0.00;;;;;22.08;50.97;98596.22;4911886;28;104041;-56
2022/07/11 01:06:32;;;;;;;;;0.00;0.00;;;;;22.06;50.99;98579.16;4906724;28;103742;-56
2022/07/11 01:08:59;;;;;;;;;0.00;0.00;;;;;22.07;51.01;98579.94;4908964;28;102838;-56
2022/07/11 01:11:27;;;;;;;;;0.00;0.00;;;;;22.06;51.12;98581.91;4909175;28;102680;-56
2022/07/11 01:13:54;;;;;;;;;0.00;0.00;;;;;22.06;51.12;98572.81;4915109;28;104215;-56
2022/07/11 01:16:22;;;;;;;;;0.00;0.00;;;;;22.06;50.81;98579.16;4927786;28;104156;-56
2022/07/11 01:18:53;;;;;;;;;0.00;0.00;;;;;22.05;50.81;98585.75;4918801;28;102502;-56
2022/07/11 01:21:32;;;;;;;;;0.33;0.33;;;;;22.04;50.98;98586.84;4916032;28;102219;-56
2022/07/11 01:24:00;;;;;;;;;0.00;0.00;;;;;22.04;51.16;98580.50;4909450;28;108799;-56
2022/07/11 01:26:28;;;;;;;;;0.00;0.00;;;;;22.03;51.09;98576.94;4912056;28;102501;-56
2022/07/11 01:28:57;;;;;;;;;0.00;0.00;;;;;22.04;51.09;98586.84;4909187;28;102481;-55
2022/07/11 01:31:25;;;;;;;;;0.00;0.00;;;;;22.03;51.01;98584.34;4906744;28;103825;-56
2022/07/11 01:33:52;;;;;;;;;0.33;0.00;;;;;22.02;50.88;98588.25;4912035;28;104081;-56
2022/07/11 01:36:20;;;;;;;;;0.00;0.00;;;;;22.02;50.68;98583.53;4917025;28;102353;-56
2022/07/11 01:38:47;;;;;;;;;0.00;0.00;;;;;22.02;51.05;98588.25;4912289;28;102551;-56
2022/07/11 01:41:14;;;;;;;;;0.00;0.00;;;;;22.02;51.12;98579.97;4913832;28;102710;-55
2022/07/11 01:43:44;;;;;;;;;0.00;0.00;;;;;22.02;51.33;98583.53;4909012;28;104086;-56
2022/07/11 01:46:12;;;;;;;;;0.00;0.00;;;;;22.02;50.77;98586.28;4909794;28;105696;-56
2022/07/11 01:48:39;;;;;;;;;0.00;0.00;;;;;22.01;50.91;98581.91;4909874;28;102859;-55
2022/07/11 01:51:06;;;;;;;;;0.00;0.00;;;;;22.01;51.39;98576.41;4913597;28;102534;-56
2022/07/11 01:53:33;;;;;;;;;0.00;0.00;;;;;22.02;50.94;98575.28;4908695;28;104284;-55
2022/07/11 01:56:01;;;;;;;;;0.00;0.00;;;;;22.01;51.30;98572.81;4907082;28;102127;-55
2022/07/11 01:58:47;;;;;;;;;0.00;0.00;;;;;22.02;51.19;98575.28;4916916;28;102499;-56
2022/07/11 02:01:15;;;;;;;;;0.00;0.00;;;;;22.02;51.17;98567.00;4919851;28;104034;-56
2022/07/11 02:03:42;;;;;;;;;0.00;0.00;;;;;22.01;51.03;98559.88;4913983;28;104703;-56
2022/07/11 02:06:10;;;;;;;;;0.00;0.00;;;;;22.00;50.97;98571.97;4914534;28;102070;-56
2022/07/11 02:08:37;;;;;;;;;0.00;0.00;;;;;22.00;51.09;98558.22;4913033;28;102943;-55
2022/07/11 02:11:04;;;;;;;;;0.00;0.00;;;;;21.99;51.10;98570.31;4915098;28;102573;-56
2022/07/11 02:13:31;;;;;;;;;0.00;0.00;;;;;22.00;51.48;98568.41;4912226;28;104200;-55
2022/07/11 02:15:58;;;;;;;;;0.00;0.00;;;;;21.99;51.04;98566.75;4914280;28;102539;-55
2022/07/11 02:18:25;;;;;;;;;0.00;0.00;;;;;21.99;51.16;98561.22;4914957;28;102425;-56
2022/07/11 02:20:53;;;;;;;;;0.00;0.00;;;;;21.99;51.50;98566.75;4914821;28;102575;-55
2022/07/11 02:23:20;;;;;;;;;0.33;0.00;;;;;21.98;51.18;98554.91;4916922;28;104030;-55
2022/07/11 02:25:47;;;;;;;;;1.00;0.00;;;;;21.96;51.17;98568.13;4914376;28;102440;-55
2022/07/11 02:28:14;;;;;;;;;0.00;0.00;;;;;21.96;51.22;98562.63;4913094;28;102619;-56
2022/07/11 02:30:43;;;;;;;;;0.00;0.00;;;;;21.95;51.10;98560.13;4914569;28;102601;-55
2022/07/11 02:33:16;;;;;;;;;0.00;0.00;;;;;21.96;50.91;98557.13;4915223;28;105237;-56
2022/07/11 02:35:46;;;;;;;;;0.00;0.00;;;;;21.95;51.02;98555.47;4918742;28;102304;-55
2022/07/11 02:38:16;;;;;;;;;0.00;0.00;;;;;21.95;51.18;98563.72;4916450;28;102072;-55
2022/07/11 02:40:47;;;;;;;;;0.00;0.00;;;;;21.94;51.14;98564.81;4915742;28;102331;-55
2022/07/11 02:43:15;;;;;;;;;0.00;0.00;;;;;21.94;50.94;98575.81;4914802;28;105168;-55
2022/07/11 02:45:42;;;;;;;;;0.00;0.00;;;;;21.94;51.41;98567.56;4910353;28;102307;-55
2022/07/11 02:48:10;;;;;;;;;0.00;0.00;;;;;21.92;51.52;98561.50;4915473;28;103047;-56
2022/07/11 02:50:37;;;;;;;;;0.00;0.00;;;;;21.94;51.17;98566.75;4917779;28;102336;-56
2022/07/11 02:53:04;;;;;;;;;0.00;0.00;;;;;21.95;51.30;98569.22;4911591;28;104083;-56
2022/07/11 02:55:37;;;;;;;;;0.00;0.00;;;;;21.94;51.17;98567.56;4918302;28;102597;-55
2022/07/11 02:58:04;;;;;;;;;0.00;0.00;;;;;21.94;51.15;98575.00;4921670;28;103603;-55
2022/07/11 03:00:31;;;;;;;;;0.00;0.00;;;;;21.94;51.06;98570.31;4920578;28;105798;-56
2022/07/11 03:02:58;;;;;;;;;0.00;0.00;;;;;21.94;51.27;98575.00;4921043;28;104027;-55
2022/07/11 03:05:27;;;;;;;;;0.00;0.00;;;;;21.93;51.43;98579.69;4920397;28;102148;-56
2022/07/11 03:07:54;;;;;;;;;0.67;0.00;;;;;21.92;51.16;98580.78;4915865;28;102757;-56
2022/07/11 03:10:23;;;;;;;;;0.00;0.00;;;;;21.93;50.95;98585.19;4921816;28;103145;-55
2022/07/11 03:12:50;;;;;;;;;0.00;0.00;;;;;21.92;51.38;98578.00;4916929;28;108999;-56
2022/07/11 03:15:17;;;;;;;;;0.00;0.00;;;;;21.91;51.17;98583.78;4942821;28;102453;-56
2022/07/11 03:17:44;;;;;;;;;0.00;0.00;;;;;21.91;51.35;98592.88;4914129;28;102086;-55
2022/07/11 03:20:11;;;;;;;;;0.00;0.00;;;;;21.93;51.29;98585.19;4920397;28;102180;-56
2022/07/11 03:22:38;;;;;;;;;0.00;0.00;;;;;21.91;51.38;98590.13;4919769;28;104072;-55
2022/07/11 03:25:06;;;;;;;;;0.00;0.00;;;;;21.92;51.35;98586.28;4916018;28;102201;-56
2022/07/11 03:27:34;;;;;;;;;0.00;0.00;;;;;21.92;51.52;98583.53;4914633;28;102125;-56
2022/07/11 03:30:01;;;;;;;;;0.00;0.00;;;;;21.92;51.19;98579.94;4933804;28;103263;-56
2022/07/11 03:32:28;;;;;;;;;0.00;0.00;;;;;21.92;51.19;98583.53;4911051;28;104059;-56
2022/07/11 03:37:41;;;;;;;;;0.00;0.00;;;;;21.92;51.58;98593.72;4911335;28;102911;-56
2022/07/11 03:40:09;;;;;;;;;0.00;0.00;;;;;21.92;51.48;98588.19;4917508;28;102309;-56
2022/07/11 03:42:36;;;;;;;;;0.00;0.00;;;;;21.92;51.10;98589.03;4917101;28;104026;-56
2022/07/11 03:45:04;;;;;;;;;0.00;0.00;;;;;21.91;51.60;98589.28;4915888;28;102446;-56
2022/07/11 03:47:32;;;;;;;;;0.00;0.00;;;;;21.90;51.31;98593.97;4919775;28;102577;-56
2022/07/11 03:50:00;;;;;;;;;0.00;0.00;;;;;21.89;51.24;98592.31;4917684;28;102250;-56
2022/07/11 03:52:27;;;;;;;;;0.00;0.00;;;;;21.90;51.39;98596.72;4916202;28;104266;-56
2022/07/11 03:54:54;;;;;;;;;1.00;0.00;;;;;21.89;50.97;98597.81;4921552;28;102308;-56
2022/07/11 03:57:22;;;;;;;;;0.00;0.00;;;;;21.90;51.28;98591.22;4923874;28;102180;-55
2022/07/11 03:59:49;;;;;;;;;0.00;0.00;;;;;21.90;51.39;98595.88;4915934;28;102356;-56
2022/07/11 04:02:16;;;;;;;;;0.00;0.00;;;;;21.92;51.36;98600.03;4918060;28;103079;-55
2022/07/11 04:04:43;;;;;;;;;0.00;0.00;;;;;21.92;51.15;98589.03;4913418;28;102150;-56
2022/07/11 04:07:10;;;;;;;;;0.00;0.00;;;;;21.92;51.25;98593.72;4914306;28;102567;-55
2022/07/11 04:09:37;;;;;;;;;0.00;0.00;;;;;21.90;51.14;98591.22;4916519;28;102246;-55
2022/07/11 04:12:05;;;;;;;;;0.00;0.00;;;;;21.92;50.93;98594.53;4914044;28;104204;-55
2022/07/11 04:14:32;;;;;;;;;0.00;0.00;;;;;21.91;51.31;98603.06;4913377;28;110900;-56
2022/07/11 04:16:59;;;;;;;;;0.00;0.00;;;;;21.90;51.10;98599.47;4917097;28;103940;-56
2022/07/11 04:19:26;;;;;;;;;0.00;0.00;;;;;21.92;50.67;98602.78;4916091;28;102419;-55
2022/07/11 04:21:53;;;;;;;;;0.00;0.00;;;;;21.92;51.21;98594.53;4916628;28;104235;-56
2022/07/11 04:24:20;;;;;;;;;0.00;0.00;;;;;21.90;50.63;98591.22;4919244;28;102243;-55
2022/07/11 04:26:47;;;;;;;;;0.00;0.00;;;;;21.90;50.77;98595.88;4916291;28;102476;-56
2022/07/11 04:29:14;;;;;;;;;0.00;0.00;;;;;21.88;51.04;98587.09;4916317;28;102331;-56
2022/07/11 04:31:42;;;;;;;;;0.00;0.00;;;;;21.90;50.62;98593.97;4910867;28;104070;-56
2022/07/11 04:34:09;;;;;;;;;0.00;0.00;;;;;21.90;50.60;98593.13;4913876;28;102517;-56
2022/07/11 04:36:36;;;;;;;;;0.00;0.00;;;;;21.89;50.86;98594.22;4912879;28;102647;-55
2022/07/11 04:39:03;;;;;;;;;0.00;0.00;;;;;21.89;50.41;98595.06;4918638;28;102564;-56
2022/07/11 04:41:30;;;;;;;;;0.00;0.00;;;;;21.86;50.72;98592.88;4919063;28;104059;-55
2022/07/11 04:43:57;;;;;;;;;0.00;0.00;;;;;21.87;50.54;98593.69;4920181;28;103104;-56
2022/07/11 04:46:24;;;;;;;;;0.00;0.00;;;;;21.87;50.69;98597.28;4938273;28;103467;-56
2022/07/11 04:48:52;;;;;;;;;0.00;0.00;;;;;21.86;50.44;98595.63;4920298;28;102911;-56
2022/07/11 04:51:19;;;;;;;;;0.00;0.00;;;;;21.86;50.77;98603.88;4915937;28;108898;-56
2022/07/11 04:53:46;;;;;;;;;0.00;0.00;;;;;21.88;50.80;98606.38;4912160;28;102307;-56
2022/07/11 04:56:13;;;;;;;;;0.00;0.00;;;;;21.85;50.74;98607.72;4915319;28;102376;-56
2022/07/11 04:58:40;;;;;;;;;0.00;0.00;;;;;21.87;50.53;98605.53;4911668;28;102379;-56
2022/07/11 05:01:08;;;;;;;;;0.00;0.00;;;;;21.87;50.53;98607.47;4919894;28;104055;-55
2022/07/11 05:03:36;;;;;;;;;0.00;0.00;;;;;21.88;50.23;98607.19;4916846;28;102409;-55
2022/07/11 05:06:04;;;;;;;;;0.00;0.00;;;;;21.89;50.63;98614.34;4914311;28;103385;-56
2022/07/11 05:08:36;;;;;;;;;1.00;0.00;;;;;21.90;50.13;98615.16;4916834;28;102176;-56
2022/07/11 05:11:04;;;;;;;;;0.00;0.00;;;;;21.91;50.29;98614.06;4918896;28;104253;-56
2022/07/11 05:13:31;;;;;;;;;0.00;0.00;;;;;21.91;50.08;98616.81;4917100;28;102953;-55
2022/07/11 05:15:58;;;;;;;;;0.00;0.00;;;;;21.92;50.25;98612.97;4918333;28;103459;-56
2022/07/11 05:18:25;;;;;;;;;0.00;0.00;;;;;21.91;50.51;98609.41;4914710;28;102359;-55
2022/07/11 05:20:52;;;;;;;;;0.00;0.00;;;;;21.92;50.33;98612.97;4919532;28;104140;-57
2022/07/11 05:23:20;;;;;;;;;0.00;0.00;;;;;21.90;50.63;98621.50;4916262;28;102229;-56
2022/07/11 05:25:47;;;;;;;;;0.00;0.00;;;;;21.91;50.56;98617.66;4913712;28;102140;-55
2022/07/11 05:28:14;;;;;;;;;0.00;0.00;;;;;21.91;50.13;98616.81;4913322;28;102184;-55
2022/07/11 05:30:41;;;;;;;;;0.00;0.00;;;;;21.92;50.00;98626.75;4912240;28;104089;-56
2022/07/11 05:33:08;;;;;;;;;0.00;0.00;;;;;21.89;50.61;98622.59;4913883;28;103285;-56
2022/07/11 05:35:35;;;;;;;;;0.00;0.00;;;;;21.90;50.61;98612.41;4910506;28;102152;-55
2022/07/11 05:38:02;;;;;;;;;0.33;0.00;;;;;21.91;50.16;98617.66;4911854;28;102367;-56
2022/07/11 05:40:29;;;;;;;;;0.00;0.00;;;;;21.90;50.81;98621.50;4911702;28;104148;-56
2022/07/11 05:42:56;;;;;;;;;0.00;0.00;;;;;21.90;50.25;98624.25;4915941;28;102303;-56
2022/07/11 05:45:23;;;;;;;;;0.00;0.00;;;;;21.91;50.19;98625.91;4918292;28;101990;-58
2022/07/11 05:47:50;;;;;;;;;0.00;0.00;;;;;21.91;50.18;98628.66;4917386;28;102396;-56
2022/07/11 05:50:17;;;;;;;;;0.00;0.00;;;;;21.93;50.18;98637.50;4909975;28;104130;-56
2022/07/11 05:52:44;;;;;;;;;0.00;0.00;;;;;21.92;50.32;98627.56;4913281;28;103029;-56
2022/07/11 05:55:11;;;;;;;;;0.00;0.00;;;;;21.92;49.99;98632.25;4912928;28;103410;-56
2022/07/11 05:57:44;;;;;;;;;0.00;0.00;;;;;21.93;50.40;98628.44;4914985;28;102343;-55
2022/07/11 06:00:12;;;;;;;;;0.00;0.00;;;;;21.91;49.93;98623.16;4916307;28;104089;-55
2022/07/11 06:02:39;;;;;;;;;0.00;0.00;;;;;21.92;50.54;98629.50;4910797;28;102154;-55
2022/07/11 06:05:07;;;;;;;;;0.00;0.00;;;;;21.95;50.24;98623.47;4908578;28;102877;-56
2022/07/11 06:10:25;;;;;;;;;1.00;0.00;;;;;21.96;50.33;98627.88;4906210;28;108447;-56
2022/07/11 06:12:52;;;;;;;;;0.00;0.00;;;;;21.96;50.16;98634.22;4913641;28;102145;-56
2022/07/11 06:15:19;;;;;;;;;0.00;0.00;;;;;21.99;49.87;98628.16;4903924;28;102116;-55
2022/07/11 06:17:47;;;;;;;;;0.00;0.00;;;;;22.00;49.77;98629.81;4901917;28;102343;-56
2022/07/11 06:20:14;;;;;;;;;0.00;0.00;;;;;22.02;50.01;98626.78;4912629;28;104247;-56
2022/07/11 06:22:41;;;;;;;;;0.00;0.00;;;;;22.04;49.81;98628.16;4904704;28;102101;-56
2022/07/11 06:25:09;;;;;;;;;0.00;0.00;;;;;22.05;49.62;98623.47;4908227;28;105922;-55
2022/07/11 06:27:36;;;;;;;;;0.00;0.00;;;;;22.06;49.97;98627.91;4910042;28;102578;-56
2022/07/11 06:30:03;;;;;;;;;0.00;0.00;;;;;22.06;50.03;98622.38;4915256;28;104088;-56
2022/07/11 06:32:31;;;;;;;;;0.00;0.00;;;;;22.05;49.91;98624.31;4917241;28;102415;-55
2022/07/11 06:34:58;;;;;;;;;0.00;0.00;;;;;22.06;50.04;98617.72;4917868;28;102167;-56
2022/07/11 06:37:25;;;;;;;;;0.00;0.00;;;;;22.06;49.85;98619.63;4912758;28;103151;-56
2022/07/11 06:39:52;;;;;;;;;0.00;0.00;;;;;22.08;49.75;98615.50;4919878;28;104133;-56
2022/07/11 06:42:19;;;;;;;;;0.00;0.00;;;;;22.08;49.54;98618.25;4913750;28;102230;-55
2022/07/11 06:44:52;;;;;;;;;0.00;0.00;;;;;22.07;49.70;98624.84;4905527;28;102465;-55
2022/07/11 06:47:19;;;;;;;;;0.00;0.00;;;;;22.11;49.68;98625.16;4918312;28;102289;-55
2022/07/11 06:49:46;;;;;;;;;0.00;0.00;;;;;22.13;49.59;98621.00;4914212;28;104081;-56
2022/07/11 06:52:14;;;;;;;;;0.00;0.00;;;;;22.17;49.50;98618.50;4912895;28;104744;-55
2022/07/11 06:54:41;;;;;;;;;0.00;0.00;;;;;22.16;49.58;98622.38;4915624;28;102136;-56
2022/07/11 06:57:09;;;;;;;;;0.00;0.00;;;;;22.18;49.55;98626.50;4915382;28;102130;-56
2022/07/11 06:59:38;;;;;;;;;0.00;0.00;;;;;22.19;49.67;98621.84;4909619;28;104088;-55
2022/07/11 07:02:05;;;;;;;;;0.00;0.00;;;;;22.19;49.24;98627.34;4912147;28;103288;-56
2022/07/11 07:04:33;;;;;;;;;0.00;0.00;;;;;22.18;49.16;98620.19;4910116;28;102478;-56
2022/07/11 07:07:01;;;;;;;;;0.00;0.00;;;;;22.18;49.27;98615.50;4916495;28;102645;-55
2022/07/11 07:09:29;;;;;;;;;0.00;0.00;;;;;22.18;49.43;98625.69;4913648;28;104099;-55
2022/07/11 07:11:56;;;;;;;;;0.00;0.00;;;;;22.16;49.51;98628.69;4916384;28;102222;-56
2022/07/11 07:14:24;;;;;;;;;0.00;0.00;;;;;22.20;49.42;98618.78;4912417;28;102423;-56
2022/07/11 07:16:53;;;;;;;;;0.00;0.00;;;;;22.20;49.27;98612.44;4911842;28;102394;-56
2022/07/11 07:19:20;;;;;;;;;0.00;0.00;;;;;22.20;49.40;98620.72;4916338;28;108977;-55
2022/07/11 07:21:47;;;;;;;;;0.00;0.00;;;;;22.21;49.13;98614.94;4929269;28;102318;-56
2022/07/11 07:24:15;;;;;;;;;0.00;0.00;;;;;22.23;49.39;98612.75;4913532;28;102152;-56
2022/07/11 07:26:44;;;;;;;;;0.00;0.00;;;;;22.24;49.31;98614.38;4916484;28;109423;-56
2022/07/11 07:29:11;;;;;;;;;0.00;0.00;;;;;22.27;49.35;98613.00;4914669;28;104311;-55
2022/07/11 07:31:38;;;;;;;;;0.00;0.00;;;;;22.29;49.38;98610.00;4910582;28;102195;-55
2022/07/11 07:34:05;;;;;;;;;0.00;0.00;;;;;22.29;49.14;98593.47;4909391;28;102089;-55
2022/07/11 07:36:32;;;;;;;;;0.00;0.00;;;;;22.31;49.18;98608.59;4912319;28;102229;-55
2022/07/11 07:39:00;;;;;;;;;0.00;0.00;;;;;22.31;48.96;98605.00;4915886;28;104073;-56
2022/07/11 07:41:27;;;;;;;;;0.00;0.00;;;;;22.30;48.86;98595.09;4909620;28;102153;-56
2022/07/11 07:43:54;;;;;;;;;0.00;0.00;;;;;22.29;49.35;98588.75;4916205;28;102990;-57
2022/07/11 07:46:21;;;;;;;;;0.00;0.00;;;;;22.28;49.11;98600.06;4919478;28;102116;-55
2022/07/11 07:48:49;;;;;;;;;0.00;0.00;;;;;22.28;49.29;98600.06;4912210;28;111254;-56
2022/07/11 07:51:16;;;;;;;;;0.00;0.00;;;;;22.29;49.04;98601.72;4910337;28;102478;-56
2022/07/11 07:53:43;;;;;;;;;0.00;0.00;;;;;22.30;48.99;98597.84;4915091;28;102207;-56
2022/07/11 07:56:10;;;;;;;;;0.00;0.00;;;;;22.32;48.84;98606.66;4911397;28;102889;-56
2022/07/11 07:58:38;;;;;;;;;0.00;0.00;;;;;22.29;48.96;98599.78;4913728;28;104044;-56
2022/07/11 08:03:52;;;;;;;;;0.00;0.00;;;;;22.31;49.10;98602.25;4913047;28;102180;-55
2022/07/11 08:06:19;;;;;;;;;0.00;0.00;;;;;22.31;49.03;98596.75;4913229;28;102195;-56
2022/07/11 08:08:46;;;;;;;;;1.00;0.67;;;;;22.30;48.87;98595.09;4905204;28;104067;-55
2022/07/11 08:11:13;;;;;;;;;0.00;0.00;;;;;22.30;48.84;98595.09;4906094;28;102094;-56
2022/07/11 08:13:57;;;;;;;;;0.00;0.00;;;;;22.31;48.92;98597.56;4907358;28;102060;-56
2022/07/11 08:16:24;;;;;;;;;0.00;0.00;;;;;22.30;48.83;98595.91;4917525;28;104863;-57
2022/07/11 08:18:55;;;;;;;;;0.00;0.00;;;;;22.31;49.10;98592.06;4907904;28;108987;-55
2022/07/11 08:21:22;;;;;;;;;0.00;0.00;;;;;22.29;49.01;98586.00;4913937;28;102494;-55
2022/07/11 08:23:49;;;;;;;;;0.00;0.00;;;;;22.32;49.11;98587.38;4913505;28;102410;-55
2022/07/11 08:26:16;;;;;;;;;0.00;0.00;;;;;22.31;48.82;98582.97;4915413;28;102249;-56
2022/07/11 08:28:44;;;;;;;;;0.00;0.00;;;;;22.31;49.00;98581.03;4909555;28;104080;-55
2022/07/11 08:31:11;;;;;;;;;0.00;0.00;;;;;22.31;49.05;98581.03;4906967;28;103219;-56
2022/07/11 08:33:38;;;;;;;;;0.00;0.00;;;;;22.32;48.74;98576.38;4910625;28;102009;-56
2022/07/11 08:36:06;;;;;;;;;0.00;0.00;;;;;22.34;48.61;98569.47;4916644;28;103403;-56
2022/07/11 08:38:33;;;;;;;;;0.00;0.00;;;;;22.34;48.72;98569.47;4911010;28;104097;-56
2022/07/11 08:41:00;;;;;;;;;0.00;0.00;;;;;22.36;48.87;98567.28;4915384;28;101979;-55
2022/07/11 08:43:29;;;;;;;;;0.00;0.00;;;;;22.37;49.02;98565.34;4911172;28;102132;-57
2022/07/11 08:45:56;;;;;;;;;0.00;0.00;;;;;22.36;48.91;98558.19;4905512;28;102300;-56
2022/07/11 08:48:23;;;;;;;;;0.00;0.00;;;;;22.37;48.89;98568.09;4919938;28;104080;-56
2022/07/11 08:50:50;;;;;;;;;0.00;0.00;;;;;22.35;48.83;98568.38;4914739;28;101911;-55
2022/07/11 08:53:18;;;;;;;;;0.00;0.00;;;;;22.36;48.76;98569.19;4930310;28;102175;-55
2022/07/11 08:55:45;;;;;;;;;0.00;0.00;;;;;22.29;48.94;98571.41;4910953;28;104876;-55
2022/07/11 08:58:12;;;;;;;;;0.00;0.00;;;;;22.32;48.68;98560.66;4908607;28;104243;-56
2022/07/11 09:00:42;;;;;;;;;0.00;0.00;;;;;22.35;49.04;98567.53;4897122;28;102199;-56
2022/07/11 09:03:15;;;;;;;;;0.00;0.00;;;;;22.36;48.80;98560.94;4915737;28;110303;-56
2022/07/11 09:05:43;;;;;;;;;0.00;0.00;;;;;22.35;48.67;98565.59;4905364;28;102146;-55
2022/07/11 09:08:10;;;;;;;;;0.00;0.00;;;;;22.37;48.83;98568.09;4911253;28;104056;-56
2022/07/11 09:10:39;;;;;;;;;0.00;0.00;;;;;22.37;48.96;98552.41;4909711;28;103168;-55
2022/07/11 09:13:08;;;;;;;;;0.00;0.00;;;;;22.39;48.96;98561.19;4912752;28;102391;-56
2022/07/11 09:15:39;;;;;;;;;0.00;0.00;;;;;22.37;48.73;98540.53;4910889;28;103331;-55
2022/07/11 09:18:25;;;;;;;;;0.00;0.00;;;;;22.39;48.94;98554.84;4910692;28;104019;-55
2022/07/11 09:26:28;;;;;;;;;0.00;0.00;;;;;22.38;48.97;98543.00;4912024;28;102407;-56
2022/07/11 09:29:08;;;;;;;;;0.00;0.00;;;;;22.36;49.14;98538.88;4916049;28;104134;-56
2022/07/11 09:31:36;;;;;;;;;0.00;0.00;;;;;22.38;48.72;98528.44;4936585;28;102584;-56
2022/07/11 09:34:11;;;;;;;;;0.00;0.00;;;;;22.40;48.76;98532.53;4913434;28;102452;-56
2022/07/11 09:36:50;;;;;;;;;0.00;0.00;;;;;22.41;48.85;98530.63;4913151;28;102297;-56
2022/07/11 09:39:27;;;;;;;;;0.00;0.00;;;;;22.42;48.91;98541.38;4910424;28;104157;-55
2022/07/11 09:41:55;;;;;;;;;0.00;0.00;;;;;22.43;48.83;98542.16;4910407;28;109760;-58
2022/07/11 09:44:33;;;;;;;;;0.00;0.00;;;;;22.43;48.92;98531.97;4912325;28;102297;-56
2022/07/11 09:47:00;;;;;;;;;0.00;0.00;;;;;22.45;48.67;98535.28;4914983;28;102463;-56
2022/07/11 09:49:34;;;;;;;;;0.00;0.00;;;;;22.45;48.82;98518.75;4909067;28;104171;-56
2022/07/11 09:52:11;;;;;;;;;0.00;0.00;;;;;22.46;48.73;98523.16;4914832;28;102018;-56
2022/07/11 09:54:57;;;;;;;;;0.00;0.00;;;;;22.48;48.53;98531.97;4904853;28;101869;-55
2022/07/11 09:57:37;;;;;;;;;0.00;0.00;;;;;22.49;48.65;98530.88;4914397;28;104273;-56
2022/07/11 10:00:09;;;;;;;;;0.00;0.00;;;;;22.48;48.83;98526.44;4913879;28;108782;-56
2022/07/11 10:02:36;;;;;;;;;0.00;0.00;;;;;22.48;48.51;98531.97;4910153;28;102245;-56
2022/07/11 10:05:04;;;;;;;;;0.00;0.00;;;;;22.49;48.48;98527.28;4911737;28;102248;-56
2022/07/11 10:07:32;;;;;;;;;0.00;0.00;;;;;22.49;48.77;98538.31;4914441;28;103058;-55
2022/07/11 10:09:59;;;;;;;;;0.00;0.00;;;;;22.50;48.61;98550.97;4911484;28;104051;-56
2022/07/11 10:12:27;;;;;;;;;0.00;0.00;;;;;22.49;48.76;98547.41;4908704;28;102196;-56
2022/07/11 10:14:54;;;;;;;;;0.00;0.00;;;;;22.48;48.52;98550.44;4911123;28;103242;-55
2022/07/11 10:17:35;;;;;;;;;0.00;0.00;;;;;22.48;48.27;98553.19;4916739;28;102224;-56
2022/07/11 10:20:17;;;;;;;;;0.00;0.00;;;;;22.49;48.58;98576.88;4923368;28;108996;-55
2022/07/11 10:22:59;;;;;;;;;0.00;0.00;;;;;22.48;48.64;98606.38;4910339;28;102195;-56
2022/07/11 10:25:45;;;;;;;;;1.00;0.00;;;;;22.48;48.79;98613.81;4914724;28;102070;-56
2022/07/11 10:28:44;;;;;;;;;0.00;0.00;;;;;22.47;48.36;98609.41;4942255;28;103145;-55
2022/07/11 10:31:21;;;;;;;;;0.00;0.00;;;;;22.48;48.75;98619.31;4914829;28;108901;-56
2022/07/11 10:34:18;;;;;;;;;1.00;0.00;;;;;22.41;48.70;98629.81;4916463;28;102564;-56
2022/07/11 10:36:46;;;;;;;;;0.00;0.00;;;;;22.42;48.48;98631.47;4916900;28;101983;-56
2022/07/11 10:39:21;;;;;;;;;0.00;0.00;;;;;22.44;48.76;98634.75;4915940;28;102106;-56
2022/07/11 10:41:48;;;;;;;;;0.00;0.00;;;;;22.44;48.72;98624.56;4913147;28;104081;-56
2022/07/11 10:44:15;;;;;;;;;0.00;0.00;;;;;22.44;48.57;98627.31;4913019;28;104262;-55
2022/07/11 10:46:43;;;;;;;;;0.00;0.00;;;;;22.45;48.31;98620.72;4912104;28;102379;-55
2022/07/11 10:49:16;;;;;;;;;0.33;0.00;;;;;22.45;48.57;98620.72;4917928;28;102226;-56
2022/07/11 10:51:49;;;;;;;;;0.00;0.00;;;;;22.47;48.44;98617.69;4907199;28;104033;-56
2022/07/11 10:54:42;;;;;;;;;0.00;0.00;;;;;22.47;48.60;98609.41;4914867;28;102488;-55
2022/07/11 10:57:31;;;;;;;;;0.00;0.00;;;;;22.48;48.69;98609.13;4912281;28;102118;-56
2022/07/11 11:00:00;;;;;;;;;0.00;0.00;;;;;22.48;48.38;98606.38;4914212;28;102733;-56
2022/07/11 11:02:28;;;;;;;;;0.00;0.00;;;;;22.48;48.41;98609.13;4919238;28;104090;-56
2022/07/11 11:04:59;;;;;;;;;0.00;0.00;;;;;22.48;48.34;98609.13;4918770;28;105013;-58
2022/07/11 11:07:36;;;;;;;;;0.00;0.00;;;;;22.49;48.65;98609.94;4911738;28;101961;-56
2022/07/11 11:10:04;;;;;;;;;0.00;0.00;;;;;22.48;48.60;98608.28;4914990;28;102426;-55
2022/07/11 11:13:14;;;;;;;;;0.00;0.00;;;;;22.47;48.66;98606.66;4918142;28;104219;-56
2022/07/11 11:15:52;;;;;;;;;0.00;0.00;;;;;22.48;48.42;98608.28;4906049;28;102172;-56
2022/07/11 11:18:24;;;;;;;;;0.00;0.00;;;;;22.46;48.78;98611.34;4914237;28;102354;-56
2022/07/11 11:21:02;;;;;;;;;0.00;0.00;;;;;22.46;48.43;98600.31;4916737;28;103140;-55
2022/07/11 11:23:40;;;;;;;;;0.00;0.00;;;;;22.45;48.67;98601.41;4915311;28;108510;-56
2022/07/11 11:26:15;;;;;;;;;0.00;0.00;;;;;22.47;48.58;98606.66;4914830;28;102309;-55
2022/07/11 11:29:02;;;;;;;;;0.00;0.00;;;;;22.48;48.60;98597.28;4915340;28;102445;-55
2022/07/11 11:31:30;;;;;;;;;0.00;0.00;;;;;22.46;48.73;98602.25;4914770;28;102130;-56
2022/07/11 11:33:57;;;;;;;;;0.00;0.00;;;;;22.49;48.58;98601.69;4916646;28;104170;-56
2022/07/11 11:36:25;;;;;;;;;0.00;0.00;;;;;22.49;48.71;98598.94;4918278;28;102323;-55
2022/07/11 11:38:52;;;;;;;;;0.00;0.00;;;;;22.50;48.58;98612.44;4916279;28;102461;-56
2022/07/11 11:41:23;;;;;;;;;0.00;0.00;;;;;22.51;48.41;98607.75;4917653;28;102201;-55
2022/07/11 11:43:51;;;;;;;;;0.00;0.00;;;;;22.52;48.50;98603.88;4913759;28;108937;-56
2022/07/11 11:46:18;;;;;;;;;0.00;0.00;;;;;22.53;48.60;98605.53;4914936;28;103131;-56